Time;durP1;ratioP1;P1;durP2;ratioP2;P2;SDS_P1;SDS_P2;PMS_P1;PMS_P2;Temp;Humidity;BMP_temperature;BMP_pressure;BME280_temperature;BME280_humidity;BME280_pressure;Samples;Min_cycle;Max_cycle;Signal;HPM_P1;HPM_P2
2020/12/28 00:01:36;;;;;;;2.80;2.40;;;;;;;10.84;88.82;98296.59;5073480;28;20058;-74
2020/12/28 00:04:02;;;;;;;3.67;2.42;;;;;;;10.79;89.26;98291.34;5072773;28;20112;-75
2020/12/28 00:06:27;;;;;;;3.28;2.00;;;;;;;10.83;89.26;98297.66;5072467;28;20028;-75
2020/12/28 00:08:53;;;;;;;2.63;2.00;;;;;;;10.84;88.88;98293.91;5072631;28;20131;-75
2020/12/28 00:11:19;;;;;;;3.97;2.15;;;;;;;10.80;88.46;98298.28;5073631;28;20476;-74
2020/12/28 00:13:45;;;;;;;4.10;1.98;;;;;;;10.80;89.09;98286.78;5072205;28;20590;-75
2020/12/28 00:16:12;;;;;;;4.15;1.90;;;;;;;10.80;87.84;98292.13;5073994;28;20032;-75
2020/12/28 00:18:37;;;;;;;2.20;1.65;;;;;;;10.81;87.50;98283.00;5073199;28;20554;-75
2020/12/28 00:21:03;;;;;;;4.03;2.10;;;;;;;10.81;87.67;98291.03;5073219;28;20111;-74
2020/12/28 00:23:28;;;;;;;2.53;1.95;;;;;;;10.79;87.14;98294.00;5070856;28;20035;-75
2020/12/28 00:25:54;;;;;;;2.65;1.73;;;;;;;10.79;86.98;98298.56;5073657;28;20027;-74
2020/12/28 00:28:19;;;;;;;3.00;1.70;;;;;;;10.72;86.84;98280.22;5071858;28;20035;-74
2020/12/28 00:30:44;;;;;;;2.63;1.65;;;;;;;10.72;87.04;98299.75;5072177;28;20056;-74
2020/12/28 00:33:10;;;;;;;3.72;2.13;;;;;;;10.77;87.21;98314.91;5071988;28;20137;-74
2020/12/28 00:35:35;;;;;;;4.65;2.00;;;;;;;10.74;87.27;98310.13;5072982;28;20487;-74
2020/12/28 00:38:00;;;;;;;4.85;2.63;;;;;;;10.69;87.85;98303.00;5072033;28;20032;-75
2020/12/28 00:40:26;;;;;;;3.30;2.33;;;;;;;10.68;87.35;98295.25;5071761;28;20038;-75
2020/12/28 00:42:51;;;;;;;2.42;2.20;;;;;;;10.72;87.64;98307.75;5072039;28;20025;-74
2020/12/28 00:45:16;;;;;;;5.30;2.45;;;;;;;10.71;87.57;98305.38;5073048;28;20048;-74
2020/12/28 00:47:42;;;;;;;2.25;2.05;;;;;;;10.72;87.89;98321.13;5073278;28;20048;-74
2020/12/28 00:50:07;;;;;;;2.35;2.13;;;;;;;10.71;87.78;98313.41;5073472;28;20048;-74
2020/12/28 00:52:33;;;;;;;3.70;2.25;;;;;;;10.71;87.78;98318.75;5071666;28;20461;-74
2020/12/28 00:54:58;;;;;;;3.97;2.50;;;;;;;10.72;88.22;98317.69;5073097;28;20020;-74
2020/12/28 00:57:23;;;;;;;3.13;2.40;;;;;;;10.75;88.09;98310.94;5072838;28;20054;-74
2020/12/28 00:59:49;;;;;;;4.07;2.42;;;;;;;10.77;87.91;98303.44;5071641;28;20029;-74
2020/12/28 01:02:14;;;;;;;3.72;2.30;;;;;;;10.77;87.66;98309.56;5071530;28;20028;-74
2020/12/28 01:04:40;;;;;;;4.20;2.10;;;;;;;10.77;87.98;98319.47;5071353;28;20064;-74
2020/12/28 01:07:05;;;;;;;3.92;2.17;;;;;;;10.78;87.83;98316.50;5072807;28;20032;-74
2020/12/28 01:09:31;;;;;;;3.92;2.05;;;;;;;10.79;87.96;98301.22;5071198;28;20444;-74
2020/12/28 01:11:57;;;;;;;2.10;1.90;;;;;;;10.76;87.49;98310.63;5071482;28;20090;-74
2020/12/28 01:14:22;;;;;;;4.20;2.05;;;;;;;10.76;87.93;98307.19;5072689;28;20426;-74
2020/12/28 01:16:48;;;;;;;4.78;2.10;;;;;;;10.80;87.81;98311.66;5071405;28;20411;-74
2020/12/28 01:19:13;;;;;;;6.10;2.97;;;;;;;10.80;88.09;98313.50;5071298;28;20119;-74
2020/12/28 01:21:38;;;;;;;2.70;2.33;;;;;;;10.80;87.76;98300.94;5070781;28;20395;-74
2020/12/28 01:24:04;;;;;;;3.30;2.15;;;;;;;10.79;88.30;98322.63;5072592;28;20032;-74
2020/12/28 01:26:29;;;;;;;2.33;2.05;;;;;;;10.73;88.29;98320.03;5072270;28;20036;-74
2020/12/28 01:28:55;;;;;;;6.35;2.40;;;;;;;10.79;88.60;98311.94;5071050;28;20499;-74
2020/12/28 01:31:20;;;;;;;8.30;3.65;;;;;;;10.78;88.20;98304.97;5071052;28;20035;-74
2020/12/28 01:33:46;;;;;;;4.28;2.50;;;;;;;10.80;88.49;98306.31;5070265;28;20504;-74
2020/12/28 01:36:11;;;;;;;3.20;2.53;;;;;;;10.78;88.91;98294.28;5072009;28;20021;-74
2020/12/28 01:38:37;;;;;;;8.50;2.38;;;;;;;10.80;88.81;98286.78;5070645;28;20024;-74
2020/12/28 01:41:02;;;;;;;5.25;3.03;;;;;;;10.80;89.23;98287.59;5071846;28;20027;-74
2020/12/28 01:43:28;;;;;;;3.22;2.22;;;;;;;10.84;88.81;98296.59;5070635;28;20028;-74
2020/12/28 01:45:54;;;;;;;3.55;2.75;;;;;;;10.80;88.93;98282.22;5071807;28;20103;-75
2020/12/28 01:48:20;;;;;;;2.90;2.58;;;;;;;10.83;89.01;98281.63;5070750;28;20052;-74
2020/12/28 01:50:45;;;;;;;5.35;2.65;;;;;;;10.82;89.18;98281.94;5071775;28;20406;-74
2020/12/28 01:53:11;;;;;;;6.40;3.22;;;;;;;10.82;89.54;98273.91;5070691;28;20060;-74
2020/12/28 01:55:40;;;;;;;3.78;2.08;;;;;;;10.83;89.55;98278.16;5071711;28;20025;-76
2020/12/28 01:58:05;;;;;;;;;;;;;;;10.81;89.43;98270.41;5071219;28;20047;-74
2020/12/28 02:00:31;;;;;;;5.15;2.67;;;;;;;10.79;89.69;98251.22;5070156;28;19913;-74
2020/12/28 02:02:56;;;;;;;6.40;3.45;;;;;;;10.72;90.21;98235.56;5071486;28;20016;-74
2020/12/28 02:05:22;;;;;;;5.30;2.85;;;;;;;10.75;89.94;98241.41;5071435;28;20021;-74
2020/12/28 02:07:53;;;;;;;3.38;2.97;;;;;;;10.73;90.06;98255.88;5070161;28;20036;-76
2020/12/28 02:10:19;;;;;;;4.55;2.85;;;;;;;10.70;90.50;98248.41;5070295;28;20111;-77
2020/12/28 02:12:44;;;;;;;5.60;3.20;;;;;;;10.76;90.25;98257.16;5070989;28;20524;-74
2020/12/28 02:15:10;;;;;;;4.80;2.78;;;;;;;10.72;90.08;98237.44;5070288;28;20119;-74
2020/12/28 02:17:35;;;;;;;4.47;3.45;;;;;;;10.73;90.65;98261.22;5069722;28;20026;-74
2020/12/28 02:20:01;;;;;;;5.00;3.10;;;;;;;10.76;90.23;98261.72;5071631;28;20035;-74
2020/12/28 02:22:26;;;;;;;6.60;3.13;;;;;;;10.74;90.22;98251.28;5071064;28;20111;-75
2020/12/28 02:24:51;;;;;;;4.85;2.97;;;;;;;10.68;89.94;98223.88;5071272;28;20041;-75
2020/12/28 02:27:17;;;;;;;6.80;3.05;;;;;;;10.75;90.39;98249.44;5071443;28;20484;-74
2020/12/28 02:29:42;;;;;;;4.75;2.72;;;;;;;10.69;90.90;98236.16;5071038;28;20439;-74
2020/12/28 02:32:08;;;;;;;5.72;2.70;;;;;;;10.73;90.48;98239.03;5071340;28;20036;-74
2020/12/28 02:34:33;;;;;;;4.95;2.58;;;;;;;10.72;90.28;98242.78;5069528;28;20052;-74
2020/12/28 02:36:59;;;;;;;5.78;3.60;;;;;;;10.68;90.46;98233.75;5069994;28;20027;-74
2020/12/28 02:39:24;;;;;;;6.38;3.17;;;;;;;10.66;89.98;98214.56;5070937;28;20104;-74
2020/12/28 02:41:49;;;;;;;4.82;3.58;;;;;;;10.70;90.14;98219.00;5069580;28;20057;-74
2020/12/28 02:44:15;;;;;;;8.20;3.65;;;;;;;10.70;90.07;98220.91;5070821;28;20040;-74
2020/12/28 02:46:40;;;;;;;4.13;3.00;;;;;;;10.71;90.37;98217.91;5068677;28;20025;-74
2020/12/28 02:49:05;;;;;;;3.53;2.33;;;;;;;10.65;90.07;98218.31;5070887;28;20078;-74
2020/12/28 02:51:31;;;;;;;6.18;2.95;;;;;;;10.65;90.17;98212.97;5069321;28;20641;-74
2020/12/28 02:53:56;;;;;;;7.72;2.67;;;;;;;10.71;89.72;98219.81;5069731;28;20089;-74
2020/12/28 02:56:22;;;;;;;4.00;2.33;;;;;;;10.70;89.14;98226.25;5069744;28;20024;-74
2020/12/28 02:58:47;;;;;;;3.33;2.30;;;;;;;10.68;89.41;98220.38;5070815;28;20067;-74
2020/12/28 03:01:13;;;;;;;6.65;2.63;;;;;;;10.70;89.36;98227.03;5069505;28;20028;-74
2020/12/28 03:03:38;;;;;;;4.32;2.00;;;;;;;10.71;89.00;98227.84;5069431;28;20465;-74
2020/12/28 03:06:03;;;;;;;4.22;1.65;;;;;;;10.65;88.57;98227.13;5070681;28;20527;-74
2020/12/28 03:08:29;;;;;;;5.80;1.58;;;;;;;10.66;88.62;98233.28;5070637;28;20024;-74
2020/12/28 03:10:54;;;;;;;2.83;1.45;;;;;;;10.72;88.57;98256.94;5071331;28;20081;-74
2020/12/28 03:13:20;;;;;;;1.88;1.50;;;;;;;10.69;87.76;98238.84;5071178;28;20380;-75
2020/12/28 03:15:45;;;;;;;2.85;1.80;;;;;;;10.75;88.10;98257.44;5070975;28;20067;-74
2020/12/28 03:18:10;;;;;;;2.60;1.50;;;;;;;10.68;87.92;98242.59;5069497;28;20040;-74
2020/12/28 03:20:36;;;;;;;2.70;1.75;;;;;;;10.71;87.92;98238.53;5069071;28;20028;-74
2020/12/28 03:23:01;;;;;;;5.40;1.98;;;;;;;10.73;87.51;98250.50;5070583;28;20067;-74
2020/12/28 03:25:27;;;;;;;2.33;1.27;;;;;;;10.78;86.95;98254.16;5069442;28;20055;-73
2020/12/28 03:27:52;;;;;;;1.92;1.40;;;;;;;10.82;87.31;98263.97;5069150;28;20468;-76
2020/12/28 03:30:18;;;;;;;2.45;1.30;;;;;;;10.86;86.93;98270.34;5070434;28;20021;-76
2020/12/28 03:32:43;;;;;;;5.38;1.65;;;;;;;10.84;87.29;98263.69;5068873;28;20025;-75
2020/12/28 03:35:09;;;;;;;3.65;1.85;;;;;;;10.88;86.83;98283.41;5069347;28;20158;-75
2020/12/28 03:37:34;;;;;;;3.00;1.50;;;;;;;10.84;86.93;98269.03;5069078;28;20039;-75
2020/12/28 03:40:00;;;;;;;4.05;1.35;;;;;;;10.89;86.87;98268.97;5070344;28;20423;-75
2020/12/28 03:42:25;;;;;;;2.50;1.45;;;;;;;10.91;86.82;98271.31;5070567;28;20020;-75
2020/12/28 03:44:50;;;;;;;4.35;1.52;;;;;;;10.89;86.60;98282.34;5070020;28;20070;-75
2020/12/28 03:47:16;;;;;;;5.25;2.00;;;;;;;10.87;86.78;98273.81;5070856;28;20134;-75
2020/12/28 03:49:41;;;;;;;2.58;1.73;;;;;;;10.90;86.85;98273.22;5069860;28;20032;-75
2020/12/28 03:52:06;;;;;;;8.32;1.98;;;;;;;10.85;86.74;98270.63;5069156;28;20120;-76
2020/12/28 03:54:32;;;;;;;2.55;1.38;;;;;;;10.89;86.99;98267.06;5069213;28;20090;-75
2020/12/28 03:56:57;;;;;;;5.45;1.55;;;;;;;10.83;86.79;98243.41;5070413;28;20568;-75
2020/12/28 03:59:23;;;;;;;4.57;1.45;;;;;;;10.87;86.46;98233.69;5072866;28;20123;-75
2020/12/28 04:01:48;;;;;;;3.85;1.40;;;;;;;10.85;86.38;98225.16;5072483;28;20532;-75
2020/12/28 04:04:14;;;;;;;4.10;1.45;;;;;;;10.83;86.61;98248.75;5072750;28;20021;-75
2020/12/28 04:06:39;;;;;;;4.03;2.03;;;;;;;10.82;86.42;98255.97;5072418;28;20029;-75
2020/12/28 04:09:04;;;;;;;3.72;2.20;;;;;;;10.80;86.51;98246.66;5072318;28;20067;-75
2020/12/28 04:11:30;;;;;;;2.85;1.70;;;;;;;10.77;86.59;98257.97;5074241;28;20089;-75
2020/12/28 04:13:55;;;;;;;3.05;2.00;;;;;;;10.70;86.42;98243.06;5072046;28;20500;-75
2020/12/28 04:16:20;;;;;;;4.32;2.08;;;;;;;10.72;86.05;98267.66;5072568;28;20161;-75
2020/12/28 04:18:46;;;;;;;3.38;1.90;;;;;;;10.69;86.34;98260.22;5072353;28;20397;-75
2020/12/28 04:21:11;;;;;;;4.88;2.22;;;;;;;10.62;86.29;98245.66;5073302;28;20039;-73
2020/12/28 04:23:37;;;;;;;3.17;1.73;;;;;;;10.63;86.37;98261.41;5072146;28;20028;-74
2020/12/28 04:26:04;;;;;;;1.85;1.58;;;;;;;10.62;85.53;98254.47;5073413;28;20020;-74
2020/12/28 04:28:29;;;;;;;1.60;1.48;;;;;;;10.62;85.45;98264.34;5073673;28;20028;-74
2020/12/28 04:30:55;;;;;;;3.20;1.60;;;;;;;10.60;85.95;98261.22;5073422;28;20134;-74
2020/12/28 04:33:20;;;;;;;4.60;1.85;;;;;;;10.57;85.58;98262.59;5073259;28;20505;-74
2020/12/28 04:35:45;;;;;;;4.80;1.75;;;;;;;10.53;85.77;98259.72;5072045;28;20020;-73
2020/12/28 04:38:11;;;;;;;4.68;1.98;;;;;;;10.50;85.65;98256.84;5072086;28;20461;-74
2020/12/28 04:40:38;;;;;;;2.78;1.35;;;;;;;10.53;85.70;98262.38;5072822;28;20104;-74
2020/12/28 04:43:08;;;;;;;4.00;1.42;;;;;;;10.52;85.61;98268.81;5072044;28;20028;-74
2020/12/28 04:45:34;;;;;;;2.65;2.10;;;;;;;10.52;85.17;98268.00;5073026;28;20031;-74
2020/12/28 04:47:59;;;;;;;5.32;1.48;;;;;;;10.52;84.88;98282.19;5071743;28;20020;-74
2020/12/28 04:50:25;;;;;;;4.75;1.70;;;;;;;10.54;84.63;98276.53;5073004;28;20021;-74
2020/12/28 04:52:51;;;;;;;2.78;1.67;;;;;;;10.55;84.50;98275.44;5071576;28;20481;-73
2020/12/28 04:55:17;;;;;;;6.25;1.73;;;;;;;10.57;83.46;98259.91;5072948;28;20032;-74
2020/12/28 04:57:42;;;;;;;4.57;1.95;;;;;;;10.61;83.58;98274.28;5072575;28;20410;-73
2020/12/28 05:00:07;;;;;;;2.67;2.20;;;;;;;10.62;82.95;98277.72;5071775;28;20108;-74
2020/12/28 05:02:33;;;;;;;3.22;1.63;;;;;;;10.64;83.24;98288.94;5071625;28;20024;-73
2020/12/28 05:05:07;;;;;;;2.63;1.40;;;;;;;10.65;82.59;98288.63;5072677;28;20027;-73
2020/12/28 05:07:33;;;;;;;2.55;1.65;;;;;;;10.69;83.04;98291.50;5072585;28;20111;-74
2020/12/28 05:10:02;;;;;;;3.35;1.40;;;;;;;10.67;82.69;98297.16;5070748;28;20127;-74
2020/12/28 05:12:28;;;;;;;4.72;2.08;;;;;;;10.72;82.84;98294.38;5072549;28;20093;-74
2020/12/28 05:15:07;;;;;;;3.45;2.00;;;;;;;10.74;83.10;98302.09;5071234;28;20438;-74
2020/12/28 05:17:33;;;;;;;4.20;2.33;;;;;;;10.76;82.60;98307.97;5071401;28;20035;-74
2020/12/28 05:20:00;;;;;;;3.85;2.22;;;;;;;10.79;83.36;98303.91;5072282;28;20035;-74
2020/12/28 05:22:30;;;;;;;10.05;2.80;;;;;;;10.78;82.90;98311.16;5071157;28;20028;-74
2020/12/28 05:24:56;;;;;;;5.15;2.92;;;;;;;10.80;82.89;98310.84;5071016;28;20369;-74
2020/12/28 05:27:23;;;;;;;7.18;2.97;;;;;;;10.73;82.93;98309.34;5071209;28;20120;-74
2020/12/28 05:29:49;;;;;;;9.23;3.22;;;;;;;10.69;82.92;98310.22;5070919;28;20024;-74
2020/12/28 05:32:15;;;;;;;10.65;4.63;;;;;;;10.70;83.32;98331.31;5071030;28;20050;-74
2020/12/28 05:34:47;;;;;;;7.53;3.47;;;;;;;10.69;83.42;98337.78;5071986;28;20103;-74
2020/12/28 05:37:13;;;;;;;5.05;3.42;;;;;;;10.65;83.75;98342.09;5072249;28;20024;-74
2020/12/28 05:39:43;;;;;;;5.43;3.20;;;;;;;10.45;83.75;98321.06;5070783;28;20063;-74
2020/12/28 05:42:12;;;;;;;8.52;5.13;;;;;;;10.50;84.16;98337.81;5070790;28;20061;-74
2020/12/28 05:44:43;;;;;;;7.97;4.53;;;;;;;10.43;85.03;98342.75;5072332;28;20029;-74
2020/12/28 05:47:13;;;;;;;10.57;5.00;;;;;;;10.37;85.19;98342.03;5070789;28;20038;-74
2020/12/28 05:49:40;;;;;;;10.20;5.57;;;;;;;10.29;85.51;98339.19;5071977;28;20032;-74
2020/12/28 05:52:07;;;;;;;8.52;4.68;;;;;;;10.30;86.38;98351.47;5070696;28;20040;-74
2020/12/28 05:54:34;;;;;;;7.65;3.55;;;;;;;10.23;86.53;98331.25;5070636;28;20033;-74
2020/12/28 05:56:59;;;;;;;9.75;4.38;;;;;;;10.20;86.74;98329.16;5071749;28;20024;-74
2020/12/28 05:59:25;;;;;;;4.20;3.65;;;;;;;10.18;87.04;98343.91;5071960;28;20082;-74
2020/12/28 06:01:51;;;;;;;5.80;3.22;;;;;;;10.14;87.46;98342.91;5069800;28;20021;-74
2020/12/28 06:04:18;;;;;;;6.60;3.10;;;;;;;10.12;87.75;98347.72;5070481;28;20020;-74
2020/12/28 06:06:45;;;;;;;4.93;2.83;;;;;;;10.10;87.78;98337.34;5070202;28;20111;-74
2020/12/28 06:09:14;;;;;;;6.80;3.00;;;;;;;10.05;88.00;98350.78;5070309;28;20021;-74
2020/12/28 06:11:39;;;;;;;8.18;4.18;;;;;;;10.05;88.33;98350.78;5070373;28;20024;-74
2020/12/28 06:14:11;;;;;;;7.97;4.55;;;;;;;10.04;88.61;98349.97;5069951;28;20051;-74
2020/12/28 06:16:37;;;;;;;6.10;3.95;;;;;;;9.98;88.14;98345.78;5071301;28;20020;-73
2020/12/28 06:19:02;;;;;;;9.75;4.53;;;;;;;10.03;88.80;98368.97;5069826;28;20086;-74
2020/12/28 06:21:37;;;;;;;11.30;4.53;;;;;;;10.01;88.56;98369.25;5070987;28;20028;-73
2020/12/28 06:24:03;;;;;;;5.95;4.00;;;;;;;10.00;89.04;98373.00;5070984;28;20070;-73
2020/12/28 06:26:30;;;;;;;8.57;4.80;;;;;;;10.03;88.96;98375.13;5070724;28;20021;-73
2020/12/28 06:29:07;;;;;;;11.80;5.13;;;;;;;10.04;89.08;98374.00;5070614;28;20025;-73
2020/12/28 06:31:34;;;;;;;6.20;4.10;;;;;;;10.06;89.06;98381.75;5070943;28;20103;-73
2020/12/28 06:33:59;;;;;;;10.38;5.35;;;;;;;10.09;88.57;98376.63;5070743;28;20071;-73
2020/12/28 06:36:25;;;;;;;8.20;4.35;;;;;;;10.13;88.91;98390.22;5070988;28;20479;-73
2020/12/28 06:38:58;;;;;;;6.93;4.63;;;;;;;10.14;88.85;98401.69;5069694;28;20032;-74
2020/12/28 06:41:28;;;;;;;10.73;5.70;;;;;;;10.17;88.58;98393.88;5069614;28;20399;-74
2020/12/28 06:44:00;;;;;;;9.98;5.65;;;;;;;10.17;88.94;98393.88;5069550;28;20036;-74
2020/12/28 06:46:26;;;;;;;13.82;5.43;;;;;;;10.20;88.44;98398.63;5070037;28;20426;-74
2020/12/28 06:48:51;;;;;;;15.85;7.40;;;;;;;10.21;88.25;98388.75;5070785;28;20063;-74
2020/12/28 06:51:17;;;;;;;10.88;7.95;;;;;;;10.17;87.88;98382.41;5069934;28;20083;-74
2020/12/28 06:53:43;;;;;;;11.13;6.05;;;;;;;10.21;88.23;98386.09;5069743;28;20024;-73
2020/12/28 06:56:10;;;;;;;12.05;7.07;;;;;;;10.25;87.74;98395.91;5069191;28;20459;-73
2020/12/28 06:58:36;;;;;;;15.55;8.75;;;;;;;10.28;88.15;98394.53;5071276;28;20133;-73
2020/12/28 07:01:06;;;;;;;12.45;6.28;;;;;;;10.32;88.16;98392.06;5070633;28;20020;-73
2020/12/28 07:03:32;;;;;;;12.38;7.00;;;;;;;10.33;88.07;98391.00;5070560;28;20522;-73
2020/12/28 07:06:03;;;;;;;10.85;7.60;;;;;;;10.35;87.92;98376.25;5070610;28;20020;-73
2020/12/28 07:08:29;;;;;;;12.43;6.65;;;;;;;10.33;87.88;98373.06;5071214;28;20032;-75
2020/12/28 07:11:04;;;;;;;15.07;7.45;;;;;;;10.38;87.14;98374.91;5070583;28;20074;-75
2020/12/28 07:13:33;;;;;;;14.15;7.70;;;;;;;10.43;87.30;98376.72;5069569;28;20024;-75
2020/12/28 07:16:02;;;;;;;;;;;;;;;10.44;85.54;98372.97;5071057;28;20430;-73
2020/12/28 07:18:28;;;;;;;18.45;9.68;;;;;;;10.45;85.56;98366.50;5069547;28;20264;-73
2020/12/28 07:21:00;;;;;;;16.95;7.75;;;;;;;10.46;84.92;98370.78;5070278;28;20024;-73
2020/12/28 07:23:27;;;;;;;14.48;7.80;;;;;;;10.50;84.68;98366.44;5070429;28;20027;-75
2020/12/28 07:26:03;;;;;;;14.63;7.57;;;;;;;10.54;84.47;98367.44;5069192;28;20024;-74
2020/12/28 07:28:28;;;;;;;12.65;7.03;;;;;;;10.56;84.13;98370.63;5070626;28;20049;-75
2020/12/28 07:30:58;;;;;;;8.65;5.22;;;;;;;10.60;83.34;98376.97;5070044;28;20043;-73
2020/12/28 07:33:24;;;;;;;13.20;7.32;;;;;;;10.51;83.68;98366.16;5074443;28;20062;-74
2020/12/28 07:36:12;;;;;;;9.80;6.05;;;;;;;10.67;83.14;98379.28;5073049;28;20522;-74
2020/12/28 07:38:37;;;;;;;10.38;4.88;;;;;;;10.77;82.79;98384.44;5074950;28;20484;-75
2020/12/28 07:41:03;;;;;;;8.10;4.28;;;;;;;10.82;82.33;98395.03;5072849;28;20064;-75
2020/12/28 07:43:29;;;;;;;8.57;4.00;;;;;;;10.86;82.52;98387.22;5073138;28;20059;-75
2020/12/28 07:46:32;;;;;;;10.93;4.80;;;;;;;10.97;82.35;98391.31;5072843;28;20523;-75
2020/12/28 07:49:23;;;;;;;8.73;4.70;;;;;;;11.08;81.45;98391.94;5072293;28;20385;-75
2020/12/28 07:51:51;;;;;;;12.82;5.80;;;;;;;11.20;81.72;98392.25;5071688;28;20024;-75
2020/12/28 07:54:22;;;;;;;12.10;5.50;;;;;;;11.29;82.00;98388.88;5073107;28;20513;-73
2020/12/28 07:56:56;;;;;;;8.55;5.32;;;;;;;11.42;81.22;98395.34;5071498;28;20025;-75
2020/12/28 07:59:27;;;;;;;10.50;4.97;;;;;;;11.54;80.81;98393.75;5073967;28;20032;-75
2020/12/28 08:01:55;;;;;;;10.02;6.13;;;;;;;11.62;79.94;98384.22;5072424;28;20115;-75
2020/12/28 08:04:23;;;;;;;10.25;5.50;;;;;;;11.69;79.98;98381.13;5073818;28;20068;-75
2020/12/28 08:06:50;;;;;;;8.18;5.10;;;;;;;11.80;79.21;98392.44;5073397;28;20028;-75
2020/12/28 08:09:21;;;;;;;12.23;5.35;;;;;;;11.85;79.29;98386.97;5072638;28;20039;-75
2020/12/28 08:12:01;;;;;;;10.50;4.75;;;;;;;11.83;78.96;98379.22;5074194;28;20039;-75
2020/12/28 08:14:27;;;;;;;3.45;2.42;;;;;;;11.89;76.18;98387.97;5072670;28;20074;-75
2020/12/28 08:16:53;;;;;;;4.90;3.10;;;;;;;11.96;76.68;98392.91;5072365;28;20390;-75
2020/12/28 08:19:29;;;;;;;6.00;3.50;;;;;;;11.99;76.61;98397.69;5073826;28;20062;-76
2020/12/28 08:21:55;;;;;;;4.85;3.58;;;;;;;11.98;77.03;98386.19;5073355;28;20024;-75
2020/12/28 08:24:22;;;;;;;10.85;4.50;;;;;;;12.05;76.10;98391.13;5072368;28;20169;-75
2020/12/28 08:26:49;;;;;;;6.55;3.92;;;;;;;12.08;76.75;98382.47;5073588;28;20036;-75
2020/12/28 08:29:15;;;;;;;7.30;4.80;;;;;;;12.11;76.24;98387.25;5072020;28;20120;-75
2020/12/28 08:31:41;;;;;;;5.43;3.05;;;;;;;12.11;75.25;98370.38;5073525;28;20116;-75
2020/12/28 08:34:07;;;;;;;9.35;3.72;;;;;;;12.11;75.50;98384.56;5072783;28;20082;-74
2020/12/28 08:36:34;;;;;;;6.40;3.80;;;;;;;12.09;74.88;98376.03;5073407;28;20055;-74
2020/12/28 08:39:15;;;;;;;12.57;4.95;;;;;;;12.10;73.99;98371.47;5073121;28;20111;-75
2020/12/28 08:41:57;;;;;;;4.82;3.25;;;;;;;12.09;73.20;98383.28;5073301;28;20024;-74
2020/12/28 08:44:33;;;;;;;6.22;3.47;;;;;;;12.06;73.05;98382.00;5072193;28;20050;-74
2020/12/28 08:47:02;;;;;;;6.38;3.30;;;;;;;12.07;74.04;98382.78;5071789;28;20086;-74
2020/12/28 08:49:30;;;;;;;4.18;2.72;;;;;;;12.04;73.14;98391.44;5071954;28;20050;-73
2020/12/28 08:52:07;;;;;;;5.65;3.28;;;;;;;12.03;73.45;98377.25;5071622;28;20450;-74
2020/12/28 08:54:32;;;;;;;6.80;2.65;;;;;;;11.99;72.97;98371.69;5072931;28;20479;-74
2020/12/28 08:56:58;;;;;;;4.15;2.28;;;;;;;12.03;72.70;98376.47;5072616;28;20028;-74
2020/12/28 08:59:23;;;;;;;3.72;2.20;;;;;;;12.01;72.46;98379.41;5073311;28;20025;-74
2020/12/28 09:01:53;;;;;;;2.35;1.60;;;;;;;12.02;72.57;98383.69;5071567;28;20021;-74
2020/12/28 09:04:19;;;;;;;3.67;2.15;;;;;;;11.96;71.63;98358.91;5071581;28;20031;-74
2020/12/28 09:06:45;;;;;;;1.90;1.75;;;;;;;12.01;72.16;98374.88;5072914;28;20017;-74
2020/12/28 09:09:10;;;;;;;3.88;1.85;;;;;;;12.03;72.04;98369.19;5071265;28;20037;-74
2020/12/28 09:11:36;;;;;;;1.65;1.25;;;;;;;12.00;72.29;98365.25;5071556;28;20484;-74
2020/12/28 09:14:01;;;;;;;3.38;1.80;;;;;;;12.06;72.50;98359.75;5072319;28;20408;-74
2020/12/28 09:16:27;;;;;;;8.32;1.70;;;;;;;12.08;73.00;98361.03;5071414;28;20029;-74
2020/12/28 09:18:52;;;;;;;9.43;3.08;;;;;;;12.09;72.79;98357.28;5072692;28;20537;-74
2020/12/28 09:21:18;;;;;;;3.20;2.03;;;;;;;12.15;71.86;98369.47;5072501;28;20116;-74
2020/12/28 09:23:43;;;;;;;2.05;1.60;;;;;;;12.16;71.79;98346.91;5072484;28;20406;-74
2020/12/28 09:26:09;;;;;;;4.38;1.55;;;;;;;12.19;70.60;98340.16;5070817;28;20086;-74
2020/12/28 09:28:34;;;;;;;3.03;1.73;;;;;;;12.24;71.26;98342.75;5072148;28;20086;-74
2020/12/28 09:30:59;;;;;;;5.05;2.35;;;;;;;12.28;70.27;98341.03;5071966;28;20036;-74
2020/12/28 09:33:25;;;;;;;2.20;1.85;;;;;;;12.36;69.86;98342.19;5070783;28;20511;-74
2020/12/28 09:35:50;;;;;;;3.50;1.55;;;;;;;12.33;69.57;98332.84;5072365;28;20028;-74
2020/12/28 09:38:15;;;;;;;4.50;2.58;;;;;;;12.42;71.03;98334.81;5072265;28;20460;-74
2020/12/28 09:40:41;;;;;;;4.82;2.97;;;;;;;12.48;70.60;98342.41;5070758;28;20032;-74
2020/12/28 09:43:06;;;;;;;7.45;3.05;;;;;;;12.56;70.92;98332.06;5070484;28;20372;-75
2020/12/28 09:45:37;;;;;;;6.82;3.20;;;;;;;12.60;71.46;98333.81;5071882;28;20024;-74
2020/12/28 09:48:04;;;;;;;7.88;3.30;;;;;;;12.63;70.52;98329.72;5071759;28;20029;-74
2020/12/28 09:50:30;;;;;;;3.13;2.78;;;;;;;12.71;70.61;98320.94;5070486;28;20029;-74
2020/12/28 09:52:55;;;;;;;3.03;2.33;;;;;;;12.80;70.52;98305.69;5071942;28;20036;-75
2020/12/28 09:55:20;;;;;;;4.28;2.40;;;;;;;12.85;69.59;98307.44;5070244;28;20028;-74
2020/12/28 09:57:47;;;;;;;2.78;2.17;;;;;;;12.91;69.06;98298.13;5070357;28;20020;-74
2020/12/28 10:00:13;;;;;;;6.60;2.60;;;;;;;12.93;68.39;98271.00;5070249;28;20029;-75
2020/12/28 10:02:40;;;;;;;4.22;2.20;;;;;;;13.02;66.00;98281.78;5070406;28;20024;-75
2020/12/28 10:05:07;;;;;;;1.75;1.48;;;;;;;13.04;64.89;98268.84;5070232;28;20059;-76
2020/12/28 10:07:33;;;;;;;4.55;2.17;;;;;;;13.12;65.96;98265.38;5070371;28;20108;-75
2020/12/28 10:09:59;;;;;;;6.00;2.03;;;;;;;13.21;65.40;98260.03;5071381;28;20459;-75
2020/12/28 10:12:25;;;;;;;5.53;2.85;;;;;;;13.23;64.06;98258.63;5070355;28;20035;-75
2020/12/28 10:14:50;;;;;;;4.13;2.50;;;;;;;13.26;63.34;98252.63;5071258;28;20028;-74
2020/12/28 10:17:15;;;;;;;4.75;2.53;;;;;;;13.34;63.75;98253.75;5069910;28;20487;-74
2020/12/28 10:19:41;;;;;;;3.58;2.20;;;;;;;13.38;63.39;98245.91;5071165;28;20032;-74
2020/12/28 10:22:07;;;;;;;3.35;1.88;;;;;;;13.42;62.26;98246.84;5070932;28;20063;-74
2020/12/28 10:24:33;;;;;;;2.22;1.63;;;;;;;13.48;62.08;98247.47;5070025;28;20032;-74
2020/12/28 10:26:58;;;;;;;4.32;2.25;;;;;;;13.47;61.53;98235.16;5069540;28;20494;-74
2020/12/28 10:29:24;;;;;;;3.03;2.00;;;;;;;13.48;60.62;98217.94;5070929;28;20056;-74
2020/12/28 10:31:49;;;;;;;3.70;1.95;;;;;;;13.52;59.84;98227.72;5069984;28;20035;-73
2020/12/28 10:34:14;;;;;;;4.28;2.28;;;;;;;13.53;60.39;98229.28;5069466;28;20052;-76
2020/12/28 10:36:40;;;;;;;3.83;2.13;;;;;;;13.59;60.24;98238.00;5069888;28;20059;-75
2020/12/28 10:39:05;;;;;;;9.32;3.35;;;;;;;13.64;59.96;98227.09;5069428;28;20021;-75
2020/12/28 10:41:32;;;;;;;6.75;2.92;;;;;;;13.65;59.57;98225.22;5071188;28;20028;-75
2020/12/28 10:43:58;;;;;;;2.97;2.22;;;;;;;13.69;59.73;98232.31;5069561;28;20032;-75
2020/12/28 10:46:24;;;;;;;4.57;2.15;;;;;;;13.72;58.97;98220.94;5070814;28;20487;-75
2020/12/28 10:48:50;;;;;;;3.30;2.08;;;;;;;13.77;59.04;98220.00;5069615;28;20037;-75
2020/12/28 10:51:15;;;;;;;2.05;1.80;;;;;;;13.81;58.53;98212.84;5069537;28;20043;-75
2020/12/28 10:53:40;;;;;;;2.78;1.90;;;;;;;13.85;55.96;98216.47;5070770;28;20134;-74
2020/12/28 10:56:07;;;;;;;2.63;1.85;;;;;;;13.88;55.21;98217.78;5071060;28;20521;-75
2020/12/28 10:58:36;;;;;;;3.40;2.10;;;;;;;13.94;55.40;98219.19;5069552;28;20033;-75
2020/12/28 11:01:04;;;;;;;4.40;1.58;;;;;;;13.96;54.99;98218.84;5069266;28;20021;-75
2020/12/28 11:03:30;;;;;;;3.92;1.63;;;;;;;14.00;53.61;98217.09;5069484;28;20032;-74
2020/12/28 11:05:55;;;;;;;19.52;15.55;;;;;;;14.02;53.82;98210.28;5068902;28;20071;-74
2020/12/28 11:08:21;;;;;;;2.28;1.63;;;;;;;14.06;53.65;98224.69;5070331;28;20029;-75
2020/12/28 11:10:46;;;;;;;3.35;1.33;;;;;;;14.08;54.51;98232.44;5069479;28;20111;-74
2020/12/28 11:13:11;;;;;;;1.58;1.20;;;;;;;14.10;54.06;98227.53;5070602;28;20028;-74
2020/12/28 11:15:37;;;;;;;1.95;1.45;;;;;;;14.13;54.13;98226.09;5069392;28;20047;-74
2020/12/28 11:18:04;;;;;;;2.30;1.10;;;;;;;14.13;53.79;98228.78;5070444;28;20039;-74
2020/12/28 11:20:29;;;;;;;2.22;1.48;;;;;;;14.17;54.29;98235.09;5069298;28;20115;-74
2020/12/28 11:22:55;;;;;;;2.67;1.17;;;;;;;14.19;54.06;98236.34;5069321;28;20496;-73
2020/12/28 11:25:20;;;;;;;2.85;1.67;;;;;;;14.19;54.99;98228.28;5070568;28;20039;-74
2020/12/28 11:27:46;;;;;;;6.93;2.10;;;;;;;14.21;54.20;98226.09;5069245;28;20025;-74
2020/12/28 11:30:11;;;;;;;3.60;1.50;;;;;;;14.24;54.08;98222.75;5069121;28;20021;-73